Estación Meteorológica Peña el Pijo (Robertgarden) [ 09/23/18 02:56:28 CEST ]

Fecha Hora Presion(HPa) Temp (°C) Humedad % Rocio (°C) Viento ( m/s) Direccion Lluvia 1Hora(mm) Lluvia 24H(mm) LLuvia Total(mm)
2018-Jul-02 01:01:45 1008.600 16.3 59 8.3         269.36
2018-Jul-02 02:01:40 1008.100 14.9 62 7.7         269.36
2018-Jul-02 03:01:38 1007.900 13.4 65 6.9         269.36
2018-Jul-02 04:01:40 1007.700 13.2 69 7.6         269.36
2018-Jul-02 05:01:39 1007.600 12.5 68 6.8         269.36
2018-Jul-02 06:01:40 1007.700 11.8 64 5.2         269.36
2018-Jul-02 07:01:36 1008.400 9.3 66 3.2         269.36
2018-Jul-02 08:01:26 1008.900 12.0 71 6.9         269.36
2018-Jul-02 09:01:48 1009.000 18.4 56 9.4         269.36
2018-Jul-02 10:02:02 1009.100 23.4 45 10.7         269.36
2018-Jul-02 11:01:48 1009.000 25.8 35 9.1         269.36
2018-Jul-02 12:01:55 1008.800 28.4 33 10.5         269.36
2018-Jul-02 13:01:55 1009.000 31.1 28 10.3         269.36
2018-Jul-02 14:01:55 1008.600 32.4 25 9.6         269.36
2018-Jul-02 15:02:05 1008.300 33.6 22 8.8         269.36
2018-Jul-02 16:01:45 1008.200 33.6 22 8.8         269.36
2018-Jul-02 17:01:46 1008.200 33.9 24 10.3 1.4 S     269.36
2018-Jul-02 18:01:43 1008.100 34.3 24 10.6         269.36
2018-Jul-02 19:01:42 1008.500 32.1 27 10.6         269.36
2018-Jul-02 20:01:31 1009.000 28.4 27 7.4         269.36
2018-Jul-02 21:01:38 1009.400 24.8 30 6.1         269.36
2018-Jul-02 22:01:47 1010.100 21.4 37 6.0         269.36
2018-Jul-02 23:01:35 1010.800 19.1 47 7.5         269.36

Temperatura Máxima:34°    Temperatura Mínima:
Presión Máxima:1010.800 Hpa    Presión Mínima:1007.600 Hpa


Volver